createdAt,value
2019-06-18T00:00:31.343Z,0
2019-06-18T00:01:15.642Z,0
2019-06-18T00:02:15.641Z,0
2019-06-18T00:03:15.062Z,0
2019-06-18T00:04:15.503Z,0
2019-06-18T00:05:16.076Z,0
2019-06-18T00:06:15.511Z,0
2019-06-18T00:07:31.271Z,0
2019-06-18T00:08:16.281Z,0
2019-06-18T00:09:15.699Z,0
2019-06-18T00:10:15.978Z,0
2019-06-18T00:11:15.840Z,0
2019-06-18T00:12:15.629Z,0
2019-06-18T00:13:16.259Z,0
2019-06-18T00:15:15.980Z,0
2019-06-18T00:16:16.531Z,0
2019-06-18T00:17:17.693Z,0
2019-06-18T00:18:17.903Z,0
2019-06-18T00:20:16.606Z,0
2019-06-18T00:21:15.718Z,0
2019-06-18T00:22:31.021Z,0
2019-06-18T00:23:16.849Z,0
2019-06-18T00:24:17.736Z,0
2019-06-18T00:25:16.134Z,0
2019-06-18T00:26:15.909Z,0
2019-06-18T00:27:17.903Z,0
2019-06-18T00:28:32.826Z,0
2019-06-18T00:29:20.552Z,0
2019-06-18T00:30:18.795Z,0
2019-06-18T00:31:17.794Z,0
2019-06-18T00:32:16.341Z,0
2019-06-18T00:33:16.414Z,0
2019-06-18T00:34:16.106Z,0
2019-06-18T00:35:33.045Z,0
2019-06-18T00:36:17.635Z,0
2019-06-18T00:37:17.927Z,0
2019-06-18T00:38:17.799Z,0
2019-06-18T00:39:30.084Z,0
2019-06-18T00:40:32.273Z,0
2019-06-18T00:41:17.292Z,0
2019-06-18T00:42:16.861Z,0
2019-06-18T00:43:18.013Z,0
2019-06-18T00:44:17.133Z,0
2019-06-18T00:45:16.734Z,0
2019-06-18T00:46:15.585Z,0
2019-06-18T00:47:16.749Z,0
2019-06-18T00:48:17.364Z,0
2019-06-18T00:49:17.461Z,0
2019-06-18T00:50:16.562Z,0
2019-06-18T00:51:16.797Z,0
2019-06-18T00:52:17.458Z,0
2019-06-18T00:53:16.903Z,0
2019-06-18T00:54:31.550Z,0
2019-06-18T00:55:17.661Z,0
2019-06-18T00:56:17.206Z,0
2019-06-18T00:57:17.679Z,0
2019-06-18T00:58:17.865Z,0
2019-06-18T00:59:16.591Z,0
2019-06-18T01:00:17.975Z,0
2019-06-18T01:01:16.894Z,0
2019-06-18T01:03:17.496Z,0
2019-06-18T01:04:30.687Z,0
2019-06-18T01:05:17.883Z,0
2019-06-18T01:06:17.064Z,0
2019-06-18T01:07:17.221Z,0
2019-06-18T01:08:17.539Z,0
2019-06-18T01:09:16.688Z,0
2019-06-18T01:10:32.045Z,0
2019-06-18T01:11:16.930Z,0
2019-06-18T01:12:30.877Z,0
2019-06-18T01:13:16.748Z,0
2019-06-18T01:14:17.333Z,0
2019-06-18T01:15:17.266Z,0
2019-06-18T01:16:30.097Z,0
2019-06-18T01:17:31.002Z,0
2019-06-18T01:18:17.335Z,0
2019-06-18T01:19:17.122Z,0
2019-06-18T01:20:17.347Z,0
2019-06-18T01:22:31.096Z,0
2019-06-18T01:24:17.879Z,0
2019-06-18T01:25:17.360Z,0
2019-06-18T01:26:32.869Z,0
2019-06-18T01:27:17.981Z,0
2019-06-18T01:28:17.781Z,0
2019-06-18T01:29:17.871Z,0
2019-06-18T01:31:17.925Z,0
2019-06-18T01:32:32.800Z,0
2019-06-18T01:33:17.428Z,0
2019-06-18T01:34:19.600Z,0
2019-06-18T01:35:17.636Z,0
2019-06-18T01:36:17.787Z,0
2019-06-18T01:38:17.828Z,0
2019-06-18T01:39:18.212Z,0
2019-06-18T01:40:18.525Z,0
2019-06-18T01:41:17.609Z,0
2019-06-18T01:42:32.264Z,0
2019-06-18T01:43:19.541Z,0
2019-06-18T01:44:18.160Z,0
2019-06-18T01:45:33.451Z,0
2019-06-18T01:46:30.963Z,0
2019-06-18T01:47:18.114Z,0
2019-06-18T01:48:34.559Z,0
2019-06-18T01:49:18.215Z,0
2019-06-18T01:50:18.828Z,4
2019-06-18T01:51:18.680Z,4
2019-06-18T01:52:18.143Z,4
2019-06-18T01:53:18.389Z,0
2019-06-18T01:54:34.679Z,0
2019-06-18T01:55:18.130Z,4
2019-06-18T01:56:17.954Z,4
2019-06-18T01:57:46.591Z,0
2019-06-18T01:58:18.132Z,4
2019-06-18T01:59:19.803Z,4
2019-06-18T02:00:34.590Z,8
2019-06-18T02:01:20.039Z,4
2019-06-18T02:02:19.647Z,8
2019-06-18T02:03:34.260Z,4
2019-06-18T02:04:22.450Z,8
2019-06-18T02:05:19.491Z,8
2019-06-18T02:06:18.869Z,8
2019-06-18T02:07:20.074Z,8
2019-06-18T02:08:19.607Z,12
2019-06-18T02:10:18.495Z,12
2019-06-18T02:11:19.347Z,16
2019-06-18T02:12:34.954Z,16
2019-06-18T02:13:19.721Z,20
2019-06-18T02:14:20.360Z,20
2019-06-18T02:15:23.018Z,24
2019-06-18T02:16:20.024Z,24
2019-06-18T02:17:19.608Z,28
2019-06-18T02:18:19.864Z,28
2019-06-18T02:20:20.033Z,40
2019-06-18T02:22:22.519Z,48
2019-06-18T02:23:22.509Z,52
2019-06-18T02:24:20.231Z,56
2019-06-18T02:25:22.153Z,64
2019-06-18T02:26:22.585Z,72
2019-06-18T02:28:19.606Z,88
2019-06-18T02:29:34.875Z,100
2019-06-18T02:30:24.008Z,108
2019-06-18T02:32:23.248Z,128
2019-06-18T02:33:23.848Z,140
2019-06-18T02:34:22.261Z,148
2019-06-18T02:35:22.857Z,160
2019-06-18T02:36:22.723Z,176
2019-06-18T02:37:22.720Z,188
2019-06-18T02:38:23.139Z,204
2019-06-18T02:39:22.385Z,220
2019-06-18T02:40:34.731Z,240
2019-06-18T02:41:34.356Z,260
2019-06-18T02:42:23.098Z,272
2019-06-18T02:43:22.300Z,292
2019-06-18T02:44:20.167Z,312
2019-06-18T02:45:35.999Z,340
2019-06-18T02:46:22.490Z,356
2019-06-18T02:47:23.457Z,384
2019-06-18T02:48:19.938Z,408
2019-06-18T02:49:22.167Z,436
2019-06-18T02:50:22.606Z,468
2019-06-18T02:51:20.277Z,496
2019-06-18T02:52:19.803Z,528
2019-06-18T02:53:22.370Z,560
2019-06-18T02:54:34.806Z,604
2019-06-18T02:55:35.413Z,636
2019-06-18T02:56:22.548Z,664
2019-06-18T02:57:22.798Z,700
2019-06-18T02:58:19.537Z,740
2019-06-18T02:59:34.950Z,792
2019-06-18T03:00:23.202Z,828
2019-06-18T03:01:35.409Z,884
2019-06-18T03:02:20.250Z,920
2019-06-18T03:03:34.997Z,980
2019-06-18T03:04:20.188Z,1016
2019-06-18T03:05:22.321Z,1064
2019-06-18T03:06:22.007Z,1120
2019-06-18T03:07:22.580Z,1168
2019-06-18T03:08:19.939Z,1224
2019-06-18T03:09:22.200Z,1280
2019-06-18T03:10:22.386Z,1336
2019-06-18T03:11:22.701Z,1396
2019-06-18T03:12:22.533Z,1460
2019-06-18T03:13:23.249Z,1524
2019-06-18T03:14:22.793Z,1584
2019-06-18T03:15:22.739Z,1648
2019-06-18T03:16:20.102Z,1716
2019-06-18T03:17:38.424Z,1804
2019-06-18T03:18:20.541Z,1852
2019-06-18T03:19:20.294Z,1920
2019-06-18T03:20:19.610Z,1988
2019-06-18T03:21:25.019Z,2068
2019-06-18T03:22:19.684Z,2128
2019-06-18T03:23:35.335Z,2216
2019-06-18T03:24:23.063Z,2272
2019-06-18T03:25:23.215Z,2344
2019-06-18T03:26:34.317Z,2432
2019-06-18T03:27:20.352Z,2484
2019-06-18T03:28:21.907Z,2556
2019-06-18T03:29:20.193Z,2628
2019-06-18T03:30:26.334Z,2712
2019-06-18T03:31:26.610Z,2784
2019-06-18T03:32:37.621Z,2876
2019-06-18T03:33:26.883Z,2936
2019-06-18T03:34:25.051Z,3000
2019-06-18T03:35:19.856Z,3068
2019-06-18T03:36:22.679Z,3152
2019-06-18T03:37:34.593Z,3248
2019-06-18T03:38:19.649Z,3292
2019-06-18T03:39:22.427Z,3372
2019-06-18T03:40:22.727Z,3452
2019-06-18T03:41:35.067Z,3588
2019-06-18T03:42:22.910Z,3740
2019-06-18T03:43:20.157Z,4536
2019-06-18T03:44:22.440Z,5220
2019-06-18T03:45:20.374Z,5268
2019-06-18T03:46:19.803Z,6352
2019-06-18T03:47:19.852Z,4916
2019-06-18T03:48:20.220Z,4088
2019-06-18T03:49:22.534Z,4164
2019-06-18T03:50:22.223Z,4252
2019-06-18T03:51:35.721Z,4456
2019-06-18T03:52:35.674Z,4464
2019-06-18T03:53:23.213Z,4504
2019-06-18T03:54:23.340Z,4584
2019-06-18T03:55:23.611Z,4916
2019-06-18T03:56:22.400Z,5288
2019-06-18T03:57:22.777Z,5180
2019-06-18T03:58:22.328Z,4936
2019-06-18T03:59:22.165Z,5568
2019-06-18T04:00:23.338Z,6664
2019-06-18T04:01:23.247Z,7100
2019-06-18T04:02:20.244Z,5692
2019-06-18T04:03:23.118Z,5464
2019-06-18T04:04:37.481Z,5600
2019-06-18T04:05:22.554Z,5752
2019-06-18T04:06:22.614Z,5676
2019-06-18T04:07:22.391Z,5624
2019-06-18T04:08:22.610Z,5900
2019-06-18T04:09:22.531Z,10324
2019-06-18T04:10:22.887Z,21792
2019-06-18T04:11:22.103Z,34400
2019-06-18T04:12:22.346Z,39936
2019-06-18T04:13:35.112Z,39680
2019-06-18T04:14:23.418Z,39776
2019-06-18T04:15:22.535Z,42816
2019-06-18T04:16:22.305Z,41536
2019-06-18T04:17:35.192Z,40576
2019-06-18T04:18:22.614Z,43296
2019-06-18T04:19:22.637Z,44576
2019-06-18T04:20:37.205Z,44384
2019-06-18T04:21:22.913Z,43136
2019-06-18T04:22:23.014Z,43648
2019-06-18T04:23:22.498Z,45696
2019-06-18T04:24:22.693Z,46400
2019-06-18T04:25:22.106Z,44960
2019-06-18T04:26:23.026Z,44256
2019-06-18T04:27:22.970Z,45376
2019-06-18T04:28:22.566Z,46784
2019-06-18T04:29:35.263Z,48576
2019-06-18T04:30:22.511Z,48288
2019-06-18T04:31:35.730Z,47424
2019-06-18T04:32:23.400Z,48320
2019-06-18T04:33:22.348Z,46272
2019-06-18T04:34:23.222Z,47552
2019-06-18T04:35:22.526Z,52352
2019-06-18T04:36:37.985Z,53888
2019-06-18T04:37:35.885Z,51968
2019-06-18T04:38:23.666Z,50560
2019-06-18T04:39:22.727Z,52352
2019-06-18T04:40:35.563Z,52384
2019-06-18T04:41:22.421Z,54368
2019-06-18T04:42:22.851Z,55168
2019-06-18T04:44:22.660Z,53664
2019-06-18T04:46:23.413Z,55968
2019-06-18T04:47:24.792Z,58144
2019-06-18T04:48:33.430Z,59072
2019-06-18T04:49:22.798Z,58720
2019-06-18T04:50:22.675Z,60096
2019-06-18T04:51:22.893Z,60160
2019-06-18T04:52:37.254Z,61120
2019-06-18T04:53:22.962Z,61248
2019-06-18T04:54:23.723Z,62624
2019-06-18T04:55:23.054Z,62496
2019-06-18T04:56:22.336Z,60384
2019-06-18T04:57:23.361Z,62368
2019-06-18T04:58:22.886Z,62976
2019-06-18T04:59:23.300Z,65344
2019-06-18T05:00:36.424Z,67744
2019-06-18T05:01:22.534Z,67712
2019-06-18T05:02:22.751Z,65568
2019-06-18T05:03:23.358Z,66528
2019-06-18T05:04:22.744Z,67840
2019-06-18T05:06:22.689Z,68672
2019-06-18T05:07:37.422Z,67424
2019-06-18T05:08:22.649Z,65728
2019-06-18T05:09:23.356Z,63712
2019-06-18T05:10:22.665Z,60480
2019-06-18T05:11:23.613Z,57248
2019-06-18T05:12:22.996Z,56160
2019-06-18T05:13:24.865Z,57792
2019-06-18T05:14:23.087Z,62400
2019-06-18T05:15:24.962Z,67008
2019-06-18T05:16:23.179Z,69152
2019-06-18T05:17:24.686Z,71968
2019-06-18T05:18:43.945Z,71072
2019-06-18T05:19:25.199Z,72928
2019-06-18T05:20:23.657Z,77184
2019-06-18T05:21:24.656Z,78080
2019-06-18T05:22:23.529Z,76896
2019-06-18T05:23:24.968Z,76704
2019-06-18T05:24:23.082Z,75232
2019-06-18T05:25:25.186Z,75840
2019-06-18T05:26:23.732Z,76096
2019-06-18T05:27:25.241Z,77344
2019-06-18T05:28:25.328Z,79712
2019-06-18T05:29:23.395Z,78400
2019-06-18T05:30:24.837Z,77760
2019-06-18T05:31:25.531Z,79328
2019-06-18T05:32:25.175Z,80704
2019-06-18T05:33:25.557Z,83200
2019-06-18T05:34:24.863Z,76832
2019-06-18T05:35:24.953Z,67296
2019-06-18T05:36:25.779Z,62688
2019-06-18T05:37:25.445Z,65952
2019-06-18T05:38:25.676Z,74560
2019-06-18T05:39:38.089Z,76064
2019-06-18T05:40:25.411Z,80288
2019-06-18T05:41:25.362Z,76960
2019-06-18T05:42:25.479Z,75904
2019-06-18T05:43:25.202Z,77952
2019-06-18T05:44:25.573Z,81248
2019-06-18T05:45:25.376Z,82496
2019-06-18T05:46:37.988Z,85472
2019-06-18T05:47:25.575Z,84480
2019-06-18T05:48:58.406Z,84576
2019-06-18T05:49:25.667Z,83488
2019-06-18T05:50:27.916Z,82784
2019-06-18T05:51:25.750Z,83296
2019-06-18T05:52:58.064Z,84992
2019-06-18T05:53:24.952Z,85120
2019-06-18T05:54:25.496Z,87840
2019-06-18T05:56:25.968Z,86464
2019-06-18T05:57:24.821Z,87808
2019-06-18T05:58:25.475Z,86208
2019-06-18T05:59:24.823Z,87392
2019-06-18T06:00:26.342Z,89152
2019-06-18T06:02:25.133Z,86752
2019-06-18T06:03:25.528Z,90272
2019-06-18T06:04:25.730Z,90496
2019-06-18T06:05:25.347Z,92768
2019-06-18T06:06:24.736Z,91520
2019-06-18T06:07:25.206Z,90528
2019-06-18T06:08:25.054Z,89088
2019-06-18T06:09:26.586Z,82720
2019-06-18T06:10:25.366Z,81280
2019-06-18T06:11:38.894Z,83136
2019-06-18T06:12:27.185Z,85888
2019-06-18T06:13:38.967Z,91488
2019-06-18T06:14:25.338Z,87328
2019-06-18T06:15:27.220Z,85376
2019-06-18T06:16:25.406Z,84736
2019-06-18T06:17:26.952Z,82112
2019-06-18T06:18:25.522Z,84000
2019-06-18T06:19:43.609Z,81344
2019-06-18T06:20:26.125Z,83552
2019-06-18T06:21:26.045Z,81568
2019-06-18T06:22:26.903Z,81536
2019-06-18T06:23:39.116Z,79936
2019-06-18T06:24:27.348Z,82048
2019-06-18T06:25:29.102Z,84928
2019-06-18T06:26:27.623Z,85856
2019-06-18T06:27:39.478Z,86176
2019-06-18T06:28:26.990Z,83904
2019-06-18T06:29:27.024Z,83776
2019-06-18T06:30:27.819Z,82944
2019-06-18T06:31:25.775Z,84832
2019-06-18T06:32:25.887Z,88288
2019-06-18T06:33:28.060Z,88832
2019-06-18T06:34:27.448Z,92160
2019-06-18T06:35:27.334Z,94144
2019-06-18T06:36:27.889Z,93696
2019-06-18T06:37:27.287Z,91296
2019-06-18T06:38:27.860Z,85728
2019-06-18T06:39:26.915Z,85568
2019-06-18T06:40:42.312Z,85856
2019-06-18T06:41:27.451Z,88640
2019-06-18T06:42:42.614Z,90656
2019-06-18T06:43:27.334Z,89888
2019-06-18T06:44:27.533Z,93664
2019-06-18T06:45:27.560Z,92000
2019-06-18T06:46:27.759Z,92672
2019-06-18T06:47:43.023Z,91744
2019-06-18T06:48:27.933Z,89632
2019-06-18T06:49:45.573Z,89184
2019-06-18T06:50:27.393Z,88256
2019-06-18T06:51:27.878Z,88512
2019-06-18T06:52:27.890Z,89216
2019-06-18T06:53:28.146Z,89824
2019-06-18T06:54:43.320Z,89792
2019-06-18T06:55:28.770Z,89888
2019-06-18T06:56:27.413Z,86816
2019-06-18T06:57:28.258Z,85856
2019-06-18T06:59:28.694Z,85824
2019-06-18T07:00:28.751Z,83360
2019-06-18T07:01:27.367Z,78976
2019-06-18T07:02:28.397Z,80256
2019-06-18T07:03:27.557Z,82912
2019-06-18T07:04:33.804Z,82624
2019-06-18T07:05:27.493Z,81216
2019-06-18T07:06:27.195Z,79936
2019-06-18T07:07:43.255Z,82080
2019-06-18T07:08:43.177Z,82432
2019-06-18T07:09:27.089Z,83488
2019-06-18T07:10:28.211Z,81344
2019-06-18T07:11:27.967Z,76384
2019-06-18T07:12:28.784Z,76896
2019-06-18T07:13:26.516Z,79040
2019-06-18T07:14:42.863Z,77920
2019-06-18T07:15:42.770Z,76800
2019-06-18T07:16:27.879Z,76800
2019-06-18T07:17:27.502Z,78560
2019-06-18T07:18:27.743Z,78816
2019-06-18T07:19:27.310Z,80352
2019-06-18T07:20:43.215Z,79712
2019-06-18T07:21:27.856Z,80672
2019-06-18T07:22:28.079Z,78016
2019-06-18T07:23:29.770Z,76320
2019-06-18T07:24:28.069Z,77888
2019-06-18T07:25:28.942Z,79552
2019-06-18T07:27:28.152Z,77184
2019-06-18T07:29:31.915Z,75392
2019-06-18T07:30:43.295Z,77504
2019-06-18T07:31:44.941Z,76032
2019-06-18T07:32:29.965Z,73920
2019-06-18T07:33:28.344Z,73920
2019-06-18T07:34:28.867Z,73760
2019-06-18T07:35:38.627Z,71776
2019-06-18T07:36:30.071Z,70560
2019-06-18T07:37:28.202Z,72608
2019-06-18T07:38:32.310Z,74112
2019-06-18T07:39:31.968Z,74432
2019-06-18T07:40:29.840Z,76256
2019-06-18T07:41:32.361Z,73408
2019-06-18T07:42:33.224Z,69280
2019-06-18T07:43:45.032Z,74208
2019-06-18T07:44:32.379Z,75200
2019-06-18T07:45:30.010Z,73472
2019-06-18T07:47:29.841Z,72960
2019-06-18T07:48:46.015Z,70752
2019-06-18T07:49:32.920Z,69152
2019-06-18T07:50:33.651Z,68448
2019-06-18T07:51:33.172Z,67584
2019-06-18T07:52:29.594Z,66816
2019-06-18T07:53:29.499Z,66496
2019-06-18T07:55:32.643Z,66656
2019-06-18T07:56:35.491Z,65664
2019-06-18T07:57:32.411Z,62688
2019-06-18T07:58:29.766Z,60864
2019-06-18T07:59:29.790Z,61344
2019-06-18T08:00:33.669Z,60544
2019-06-18T08:01:32.988Z,61024
2019-06-18T08:02:45.180Z,63808
2019-06-18T08:03:32.849Z,62368
2019-06-18T08:05:29.601Z,64800
2019-06-18T08:06:29.580Z,63488
2019-06-18T08:07:32.965Z,62880
2019-06-18T08:08:33.121Z,65856
2019-06-18T08:09:32.785Z,64192
2019-06-18T08:10:32.401Z,58752
2019-06-18T08:12:29.509Z,61312
2019-06-18T08:13:45.638Z,58432
2019-06-18T08:14:33.571Z,59456
2019-06-18T08:15:32.939Z,60032
2019-06-18T08:16:33.218Z,59296
2019-06-18T08:17:44.681Z,58816
2019-06-18T08:18:33.158Z,59008
2019-06-18T08:19:37.306Z,57056
2019-06-18T08:20:46.499Z,50528
2019-06-18T08:21:32.744Z,51232
2019-06-18T08:22:32.417Z,52640
2019-06-18T08:23:29.909Z,54592
2019-06-18T08:24:32.273Z,54400
2019-06-18T08:25:29.586Z,55136
2019-06-18T08:26:32.690Z,57536
2019-06-18T08:27:32.851Z,58720
2019-06-18T08:28:29.664Z,56512
2019-06-18T08:29:30.038Z,52736
2019-06-18T08:30:43.227Z,50464
2019-06-18T08:31:35.421Z,50208
2019-06-18T08:32:44.638Z,49760
2019-06-18T08:33:45.167Z,44704
2019-06-18T08:34:29.571Z,36768
2019-06-18T08:35:32.291Z,26080
2019-06-18T08:36:29.652Z,23584
2019-06-18T08:37:32.840Z,22880
2019-06-18T08:38:33.224Z,22432
2019-06-18T08:39:30.054Z,22368
2019-06-18T08:40:29.782Z,22080
2019-06-18T08:42:32.176Z,21344
2019-06-18T08:43:45.191Z,20768
2019-06-18T08:44:29.991Z,21408
2019-06-18T08:45:32.234Z,21216
2019-06-18T08:46:32.636Z,20896
2019-06-18T08:47:30.034Z,20896
2019-06-18T08:48:32.847Z,20512
2019-06-18T08:49:47.512Z,20096
2019-06-18T08:50:44.024Z,20416
2019-06-18T08:51:30.219Z,20192
2019-06-18T08:52:30.237Z,20160
2019-06-18T08:53:32.207Z,20064
2019-06-18T08:54:32.337Z,19904
2019-06-18T08:55:32.952Z,19808
2019-06-18T08:56:45.505Z,19648
2019-06-18T08:57:32.459Z,19776
2019-06-18T08:58:32.733Z,19552
2019-06-18T08:59:32.915Z,19488
2019-06-18T09:00:32.466Z,19392
2019-06-18T09:01:37.509Z,19328
2019-06-18T09:02:32.661Z,19232
2019-06-18T09:03:37.341Z,19008
2019-06-18T09:04:33.066Z,18976
2019-06-18T09:05:48.088Z,18912
2019-06-18T09:06:45.779Z,18656
2019-06-18T09:07:33.028Z,18624
2019-06-18T09:08:33.119Z,18464
2019-06-18T09:09:32.112Z,18528
2019-06-18T09:10:33.041Z,18208
2019-06-18T09:11:32.923Z,18144
2019-06-18T09:12:45.599Z,18016
2019-06-18T09:13:32.350Z,17796
2019-06-18T09:14:33.010Z,17688
2019-06-18T09:15:33.294Z,17480
2019-06-18T09:16:32.668Z,17516
2019-06-18T09:17:33.226Z,17244
2019-06-18T09:18:33.650Z,17212
2019-06-18T09:19:32.949Z,17048
2019-06-18T09:20:33.358Z,17092
2019-06-18T09:21:48.061Z,16920
2019-06-18T09:22:33.021Z,16836
2019-06-18T09:23:45.991Z,16632
2019-06-18T09:24:32.909Z,16544
2019-06-18T09:26:32.632Z,16308
2019-06-18T09:27:33.497Z,16216
2019-06-18T09:29:33.211Z,15972
2019-06-18T09:30:34.039Z,15864
2019-06-18T09:31:46.053Z,15756
2019-06-18T09:32:33.032Z,15696
2019-06-18T09:33:32.697Z,15572
2019-06-18T09:34:46.122Z,15596
2019-06-18T09:35:46.560Z,15688
2019-06-18T09:36:32.949Z,15680
2019-06-18T09:37:48.236Z,15428
2019-06-18T09:38:33.326Z,15236
2019-06-18T09:39:32.937Z,15104
2019-06-18T09:40:35.406Z,15352
2019-06-18T09:41:34.731Z,15184
2019-06-18T09:42:32.958Z,14944
2019-06-18T09:44:33.329Z,14760
2019-06-18T09:45:48.978Z,14788
2019-06-18T09:46:33.314Z,14712
2019-06-18T09:47:32.991Z,14764
2019-06-18T09:48:33.737Z,14792
2019-06-18T09:50:34.972Z,14580
2019-06-18T09:51:48.903Z,14408
2019-06-18T09:52:47.953Z,14104
2019-06-18T09:53:35.162Z,14152
2019-06-18T09:54:34.924Z,13996
2019-06-18T09:55:34.692Z,14200
2019-06-18T09:56:33.327Z,14408
2019-06-18T09:57:34.820Z,14460
2019-06-18T09:58:34.618Z,14420
2019-06-18T09:59:37.113Z,14616
2019-06-18T10:00:33.152Z,14640
2019-06-18T10:01:33.551Z,14488
2019-06-18T10:02:47.387Z,14248
2019-06-18T10:03:34.820Z,14508
2019-06-18T10:04:34.635Z,14544
2019-06-18T10:05:32.826Z,14656
2019-06-18T10:06:34.928Z,14552
2019-06-18T10:07:34.947Z,14416
2019-06-18T10:08:47.566Z,6624
2019-06-18T10:09:35.864Z,6244
2019-06-18T10:11:36.063Z,13968
2019-06-18T10:12:47.665Z,14160
2019-06-18T10:13:35.648Z,13472
2019-06-18T10:14:35.724Z,13904
2019-06-18T10:15:35.725Z,13852
2019-06-18T10:16:35.136Z,13964
2019-06-18T10:17:35.194Z,13764
2019-06-18T10:18:35.862Z,14236
2019-06-18T10:19:35.352Z,7116
2019-06-18T10:20:35.489Z,14000
2019-06-18T10:21:49.914Z,13792
2019-06-18T10:22:35.300Z,7564
2019-06-18T10:23:33.366Z,13600
2019-06-18T10:24:48.078Z,13380
2019-06-18T10:25:35.007Z,6728
2019-06-18T10:26:34.830Z,13360
2019-06-18T10:27:35.524Z,13352
2019-06-18T10:28:35.375Z,13464
2019-06-18T10:30:09.238Z,12872
2019-06-18T10:30:35.138Z,12316
2019-06-18T10:31:36.243Z,12372
2019-06-18T10:32:33.656Z,9620
2019-06-18T10:33:48.370Z,6000
2019-06-18T10:34:48.391Z,6536
2019-06-18T10:35:37.210Z,6500
2019-06-18T10:36:34.984Z,13200
2019-06-18T10:37:35.262Z,12980
2019-06-18T10:38:35.517Z,12836
2019-06-18T10:39:34.619Z,12872
2019-06-18T10:40:48.607Z,11000
2019-06-18T10:41:33.969Z,12404
2019-06-18T10:42:34.010Z,12528
2019-06-18T10:43:36.097Z,12548
2019-06-18T10:44:35.512Z,12348
2019-06-18T10:45:48.740Z,12272
2019-06-18T10:46:35.390Z,12388
2019-06-18T10:47:48.563Z,12456
2019-06-18T10:48:48.962Z,12480
2019-06-18T10:49:37.238Z,12348
2019-06-18T10:50:35.426Z,12356
2019-06-18T10:51:36.013Z,12304
2019-06-18T10:52:35.268Z,12252
2019-06-18T10:53:35.645Z,12240
2019-06-18T10:54:37.439Z,12344
2019-06-18T10:55:35.059Z,7096
2019-06-18T10:56:49.120Z,11196
2019-06-18T10:57:35.507Z,12424
2019-06-18T10:58:37.643Z,5804
2019-06-18T10:59:49.193Z,5800
2019-06-18T11:00:37.454Z,10972
2019-06-18T11:01:35.065Z,6444
2019-06-18T11:02:35.529Z,5536
2019-06-18T11:03:37.353Z,5172
2019-06-18T11:04:37.527Z,5128
2019-06-18T11:05:53.090Z,11108
2019-06-18T11:07:35.887Z,6264
2019-06-18T11:08:35.169Z,11444
2019-06-18T11:09:36.480Z,11704
2019-06-18T11:10:34.903Z,11644
2019-06-18T11:11:36.015Z,11684
2019-06-18T11:12:49.623Z,7252
2019-06-18T11:13:38.110Z,11724
2019-06-18T11:14:37.918Z,11864
2019-06-18T11:15:37.991Z,11756
2019-06-18T11:16:49.528Z,11544
2019-06-18T11:17:37.100Z,10316
2019-06-18T11:18:42.597Z,11276
2019-06-18T11:19:37.223Z,11064
2019-06-18T11:20:35.176Z,10868
2019-06-18T11:21:38.344Z,10092
2019-06-18T11:22:37.120Z,10356
2019-06-18T11:23:59.229Z,10316
2019-06-18T11:24:35.330Z,8532
2019-06-18T11:25:35.337Z,5828
2019-06-18T11:26:38.194Z,8772
2019-06-18T11:27:50.086Z,5484
2019-06-18T11:28:37.025Z,5196
2019-06-18T11:29:37.793Z,5184
2019-06-18T11:30:42.886Z,5376
2019-06-18T11:31:37.803Z,9268
2019-06-18T11:32:52.455Z,9444
2019-06-18T11:33:37.651Z,9352
2019-06-18T11:34:37.897Z,9392
2019-06-18T11:35:38.075Z,8264
2019-06-18T11:36:37.727Z,8836
2019-06-18T11:37:38.004Z,9596
2019-06-18T11:38:38.362Z,5936
2019-06-18T11:39:37.946Z,9452
2019-06-18T11:40:37.795Z,6208
2019-06-18T11:41:35.831Z,6184
2019-06-18T11:42:37.126Z,6612
2019-06-18T11:43:35.964Z,8228
2019-06-18T11:44:36.084Z,9276
2019-06-18T11:45:35.751Z,8348
2019-06-18T11:46:35.993Z,8328
2019-06-18T11:47:38.645Z,8768
2019-06-18T11:48:36.083Z,8796
2019-06-18T11:49:38.607Z,8256
2019-06-18T11:50:36.321Z,9024
2019-06-18T11:51:37.449Z,8732
2019-06-18T11:52:43.751Z,9096
2019-06-18T11:53:38.141Z,9116
2019-06-18T11:54:38.639Z,8296
2019-06-18T11:55:52.092Z,8548
2019-06-18T11:56:37.601Z,8520
2019-06-18T11:58:36.958Z,7908
2019-06-18T11:59:52.772Z,8128
2019-06-18T12:00:36.402Z,7860
2019-06-18T12:01:40.137Z,7796
2019-06-18T12:02:38.186Z,7784
2019-06-18T12:03:37.716Z,7796
2019-06-18T12:04:38.673Z,7772
2019-06-18T12:05:37.939Z,7776
2019-06-18T12:06:37.182Z,7588
2019-06-18T12:07:37.561Z,7768
2019-06-18T12:08:36.704Z,6472
2019-06-18T12:09:38.579Z,5244
2019-06-18T12:11:01.220Z,7340
2019-06-18T12:11:38.108Z,7132
2019-06-18T12:12:37.797Z,7140
2019-06-18T12:13:38.682Z,7160
2019-06-18T12:14:36.826Z,7204
2019-06-18T12:15:53.157Z,7240
2019-06-18T12:16:37.637Z,7216
2019-06-18T12:17:38.130Z,7300
2019-06-18T12:18:37.722Z,6524
2019-06-18T12:19:38.278Z,7356
2019-06-18T12:21:38.011Z,7448
2019-06-18T12:22:57.584Z,4816
2019-06-18T12:24:37.198Z,4860
2019-06-18T12:25:38.560Z,5060
2019-06-18T12:26:38.493Z,7564
2019-06-18T12:27:38.426Z,7640
2019-06-18T12:28:37.834Z,7748
2019-06-18T12:29:38.429Z,6492
2019-06-18T12:30:37.305Z,7432
2019-06-18T12:31:52.709Z,7320
2019-06-18T12:33:02.698Z,7304
2019-06-18T12:33:39.905Z,4560
2019-06-18T12:34:40.544Z,4552
2019-06-18T12:35:42.745Z,7300
2019-06-18T12:36:39.895Z,6808
2019-06-18T12:37:42.417Z,4536
2019-06-18T12:38:38.499Z,6624
2019-06-18T12:39:54.630Z,5576
2019-06-18T12:40:39.910Z,6672
2019-06-18T12:41:40.197Z,7004
2019-06-18T12:42:37.698Z,7112
2019-06-18T12:43:38.722Z,7012
2019-06-18T12:44:40.189Z,4972
2019-06-18T12:45:42.992Z,4432
2019-06-18T12:46:42.729Z,4676
2019-06-18T12:47:53.534Z,4612
2019-06-18T12:48:39.912Z,6888
2019-06-18T12:49:45.324Z,7092
2019-06-18T12:50:42.277Z,7128
2019-06-18T12:51:42.692Z,7148
2019-06-18T12:52:39.770Z,7160
2019-06-18T12:53:37.991Z,7168
2019-06-18T12:54:55.232Z,7288
2019-06-18T12:55:38.058Z,7312
2019-06-18T12:56:40.481Z,7464
2019-06-18T12:57:39.526Z,7588
2019-06-18T12:58:42.860Z,7564
2019-06-18T12:59:43.746Z,7400
2019-06-18T13:01:38.221Z,7320
2019-06-18T13:02:55.028Z,7116
2019-06-18T13:03:40.386Z,6888
2019-06-18T13:04:54.671Z,6716
2019-06-18T13:05:42.875Z,6712
2019-06-18T13:06:54.887Z,6544
2019-06-18T13:07:56.110Z,6472
2019-06-18T13:08:54.434Z,6512
2019-06-18T13:09:38.465Z,6676
2019-06-18T13:11:40.181Z,6736
2019-06-18T13:12:43.391Z,6764
2019-06-18T13:14:40.225Z,6848
2019-06-18T13:16:43.710Z,6904
2019-06-18T13:17:43.339Z,6920
2019-06-18T13:18:38.495Z,6912
2019-06-18T13:20:38.798Z,6904
2019-06-18T13:21:39.463Z,6956
2019-06-18T13:22:39.510Z,7004
2019-06-18T13:23:54.893Z,7048
2019-06-18T13:24:43.821Z,7052
2019-06-18T13:25:43.462Z,7048
2019-06-18T13:26:38.956Z,7008
2019-06-18T13:27:40.878Z,6964
2019-06-18T13:28:39.826Z,5484
2019-06-18T13:29:40.228Z,4380
2019-06-18T13:30:39.938Z,4372
2019-06-18T13:31:43.412Z,3980
2019-06-18T13:32:44.950Z,4104
2019-06-18T13:33:39.193Z,3964
2019-06-18T13:34:55.291Z,4280
2019-06-18T13:35:56.108Z,4952
2019-06-18T13:36:52.751Z,6856
2019-06-18T13:37:54.964Z,6852
2019-06-18T13:38:43.146Z,6820
2019-06-18T13:39:42.814Z,6804
2019-06-18T13:40:42.968Z,6792
2019-06-18T13:41:39.523Z,6788
2019-06-18T13:42:40.501Z,6796
2019-06-18T13:43:42.642Z,6776
2019-06-18T13:45:39.965Z,6796
2019-06-18T13:46:55.135Z,6812
2019-06-18T13:47:40.025Z,6780
2019-06-18T13:48:40.198Z,6764
2019-06-18T13:49:42.543Z,6664
2019-06-18T13:50:54.331Z,6612
2019-06-18T13:52:40.306Z,6532
2019-06-18T13:53:54.786Z,6528
2019-06-18T13:54:43.041Z,6540
2019-06-18T13:55:43.092Z,6536
2019-06-18T13:56:40.506Z,6524
2019-06-18T13:57:44.697Z,6500
2019-06-18T13:58:39.929Z,6484
2019-06-18T13:59:39.755Z,6468
2019-06-18T14:00:39.721Z,6496